sensor_id;sensor_type;location;lat;lon;timestamp;P1;durP1;ratioP1;P2;durP2;ratioP2
3985;SDS011;2007;48.750;9.278;2023-07-13T00:02:03;5.00;;;2.07;;
3985;SDS011;2007;48.750;9.278;2023-07-13T00:04:32;3.20;;;2.10;;
3985;SDS011;2007;48.750;9.278;2023-07-13T00:07:01;4.30;;;1.90;;
3985;SDS011;2007;48.750;9.278;2023-07-13T00:09:29;3.10;;;2.10;;
3985;SDS011;2007;48.750;9.278;2023-07-13T00:11:57;2.10;;;1.67;;
3985;SDS011;2007;48.750;9.278;2023-07-13T00:14:26;2.70;;;1.73;;
3985;SDS011;2007;48.750;9.278;2023-07-13T00:16:55;2.30;;;1.87;;
3985;SDS011;2007;48.750;9.278;2023-07-13T00:19:27;3.10;;;1.73;;
3985;SDS011;2007;48.750;9.278;2023-07-13T00:21:58;3.90;;;2.53;;
3985;SDS011;2007;48.750;9.278;2023-07-13T00:24:27;3.60;;;2.00;;
3985;SDS011;2007;48.750;9.278;2023-07-13T00:26:55;2.30;;;1.67;;
3985;SDS011;2007;48.750;9.278;2023-07-13T00:29:23;2.30;;;1.60;;
3985;SDS011;2007;48.750;9.278;2023-07-13T00:31:52;2.10;;;1.60;;
3985;SDS011;2007;48.750;9.278;2023-07-13T00:34:21;2.50;;;1.60;;
3985;SDS011;2007;48.750;9.278;2023-07-13T00:36:49;3.00;;;1.67;;
3985;SDS011;2007;48.750;9.278;2023-07-13T00:39:17;2.63;;;1.93;;
3985;SDS011;2007;48.750;9.278;2023-07-13T00:41:48;2.70;;;1.83;;
3985;SDS011;2007;48.750;9.278;2023-07-13T00:44:17;4.33;;;2.90;;
3985;SDS011;2007;48.750;9.278;2023-07-13T00:46:47;2.10;;;1.43;;
3985;SDS011;2007;48.750;9.278;2023-07-13T00:49:15;2.60;;;2.03;;
3985;SDS011;2007;48.750;9.278;2023-07-13T00:51:48;2.87;;;2.27;;
3985;SDS011;2007;48.750;9.278;2023-07-13T00:54:19;2.17;;;1.73;;
3985;SDS011;2007;48.750;9.278;2023-07-13T00:56:51;2.87;;;1.77;;
3985;SDS011;2007;48.750;9.278;2023-07-13T00:59:22;2.80;;;1.50;;
3985;SDS011;2007;48.750;9.278;2023-07-13T01:01:52;2.63;;;1.60;;
3985;SDS011;2007;48.750;9.278;2023-07-13T01:04:20;2.43;;;1.83;;
3985;SDS011;2007;48.750;9.278;2023-07-13T01:06:48;2.17;;;1.47;;
3985;SDS011;2007;48.750;9.278;2023-07-13T01:09:16;2.00;;;1.50;;
3985;SDS011;2007;48.750;9.278;2023-07-13T01:11:44;2.40;;;1.53;;
3985;SDS011;2007;48.750;9.278;2023-07-13T01:14:13;2.40;;;1.90;;
3985;SDS011;2007;48.750;9.278;2023-07-13T01:16:44;2.73;;;2.03;;
3985;SDS011;2007;48.750;9.278;2023-07-13T01:19:19;2.30;;;1.40;;
3985;SDS011;2007;48.750;9.278;2023-07-13T01:21:57;3.10;;;2.20;;
3985;SDS011;2007;48.750;9.278;2023-07-13T01:24:25;2.93;;;2.20;;
3985;SDS011;2007;48.750;9.278;2023-07-13T01:26:53;2.13;;;1.57;;
3985;SDS011;2007;48.750;9.278;2023-07-13T01:29:21;1.90;;;1.53;;
3985;SDS011;2007;48.750;9.278;2023-07-13T01:31:49;2.37;;;1.40;;
3985;SDS011;2007;48.750;9.278;2023-07-13T01:34:17;2.60;;;1.47;;
3985;SDS011;2007;48.750;9.278;2023-07-13T01:36:45;2.00;;;1.70;;
3985;SDS011;2007;48.750;9.278;2023-07-13T01:39:14;2.57;;;1.50;;
3985;SDS011;2007;48.750;9.278;2023-07-13T01:41:43;2.10;;;1.40;;
3985;SDS011;2007;48.750;9.278;2023-07-13T01:44:11;2.57;;;1.40;;
3985;SDS011;2007;48.750;9.278;2023-07-13T01:46:39;1.80;;;1.33;;
3985;SDS011;2007;48.750;9.278;2023-07-13T01:49:07;2.63;;;2.03;;
3985;SDS011;2007;48.750;9.278;2023-07-13T01:51:35;1.90;;;1.33;;
3985;SDS011;2007;48.750;9.278;2023-07-13T01:54:03;2.90;;;1.80;;
3985;SDS011;2007;48.750;9.278;2023-07-13T01:56:32;1.90;;;1.20;;
3985;SDS011;2007;48.750;9.278;2023-07-13T01:59:00;2.03;;;1.40;;
3985;SDS011;2007;48.750;9.278;2023-07-13T02:01:28;2.33;;;1.63;;
3985;SDS011;2007;48.750;9.278;2023-07-13T02:03:56;2.60;;;1.53;;
3985;SDS011;2007;48.750;9.278;2023-07-13T02:06:24;2.57;;;1.77;;
3985;SDS011;2007;48.750;9.278;2023-07-13T02:08:52;2.17;;;1.43;;
3985;SDS011;2007;48.750;9.278;2023-07-13T02:11:20;3.37;;;1.53;;
3985;SDS011;2007;48.750;9.278;2023-07-13T02:13:49;2.30;;;1.37;;
3985;SDS011;2007;48.750;9.278;2023-07-13T02:16:18;2.13;;;1.50;;
3985;SDS011;2007;48.750;9.278;2023-07-13T02:18:46;2.13;;;1.13;;
3985;SDS011;2007;48.750;9.278;2023-07-13T02:21:14;2.23;;;1.60;;
3985;SDS011;2007;48.750;9.278;2023-07-13T02:23:41;2.40;;;1.40;;
3985;SDS011;2007;48.750;9.278;2023-07-13T02:26:10;2.33;;;1.77;;
3985;SDS011;2007;48.750;9.278;2023-07-13T02:28:39;2.20;;;1.63;;
3985;SDS011;2007;48.750;9.278;2023-07-13T02:31:10;6.20;;;2.23;;
3985;SDS011;2007;48.750;9.278;2023-07-13T02:33:39;2.00;;;1.43;;
3985;SDS011;2007;48.750;9.278;2023-07-13T02:36:08;2.77;;;1.30;;
3985;SDS011;2007;48.750;9.278;2023-07-13T02:38:36;3.07;;;1.80;;
3985;SDS011;2007;48.750;9.278;2023-07-13T02:41:05;2.07;;;1.33;;
3985;SDS011;2007;48.750;9.278;2023-07-13T02:43:35;1.87;;;1.43;;
3985;SDS011;2007;48.750;9.278;2023-07-13T02:46:04;1.90;;;1.23;;
3985;SDS011;2007;48.750;9.278;2023-07-13T02:48:36;2.10;;;1.70;;
3985;SDS011;2007;48.750;9.278;2023-07-13T02:51:06;1.90;;;1.37;;
3985;SDS011;2007;48.750;9.278;2023-07-13T02:53:34;2.23;;;1.37;;
3985;SDS011;2007;48.750;9.278;2023-07-13T02:56:02;2.40;;;1.60;;
3985;SDS011;2007;48.750;9.278;2023-07-13T02:58:31;2.67;;;1.50;;
3985;SDS011;2007;48.750;9.278;2023-07-13T03:01:05;2.17;;;1.37;;
3985;SDS011;2007;48.750;9.278;2023-07-13T03:03:36;2.10;;;1.40;;
3985;SDS011;2007;48.750;9.278;2023-07-13T03:06:04;3.80;;;1.47;;
3985;SDS011;2007;48.750;9.278;2023-07-13T03:08:35;1.97;;;1.30;;
3985;SDS011;2007;48.750;9.278;2023-07-13T03:11:04;2.63;;;1.50;;
3985;SDS011;2007;48.750;9.278;2023-07-13T03:13:34;2.57;;;1.60;;
3985;SDS011;2007;48.750;9.278;2023-07-13T03:16:02;3.13;;;1.60;;
3985;SDS011;2007;48.750;9.278;2023-07-13T03:18:31;2.30;;;1.70;;
3985;SDS011;2007;48.750;9.278;2023-07-13T03:21:00;2.40;;;1.30;;
3985;SDS011;2007;48.750;9.278;2023-07-13T03:23:28;2.10;;;1.47;;
3985;SDS011;2007;48.750;9.278;2023-07-13T03:26:04;1.90;;;1.00;;
3985;SDS011;2007;48.750;9.278;2023-07-13T03:28:34;1.90;;;1.20;;
3985;SDS011;2007;48.750;9.278;2023-07-13T03:31:03;2.03;;;1.10;;
3985;SDS011;2007;48.750;9.278;2023-07-13T03:33:36;2.20;;;1.40;;
3985;SDS011;2007;48.750;9.278;2023-07-13T03:36:06;2.23;;;1.40;;
3985;SDS011;2007;48.750;9.278;2023-07-13T03:38:36;2.00;;;1.40;;
3985;SDS011;2007;48.750;9.278;2023-07-13T03:41:03;2.10;;;1.30;;
3985;SDS011;2007;48.750;9.278;2023-07-13T03:43:31;3.10;;;1.70;;
3985;SDS011;2007;48.750;9.278;2023-07-13T03:45:59;2.33;;;1.50;;
3985;SDS011;2007;48.750;9.278;2023-07-13T03:48:27;2.10;;;1.53;;
3985;SDS011;2007;48.750;9.278;2023-07-13T03:50:55;2.70;;;1.30;;
3985;SDS011;2007;48.750;9.278;2023-07-13T03:53:25;2.10;;;1.20;;
3985;SDS011;2007;48.750;9.278;2023-07-13T03:55:53;1.70;;;1.00;;
3985;SDS011;2007;48.750;9.278;2023-07-13T03:58:25;3.13;;;1.50;;
3985;SDS011;2007;48.750;9.278;2023-07-13T04:00:56;2.10;;;1.47;;
3985;SDS011;2007;48.750;9.278;2023-07-13T04:03:25;3.30;;;1.33;;
3985;SDS011;2007;48.750;9.278;2023-07-13T04:05:55;2.03;;;1.40;;
3985;SDS011;2007;48.750;9.278;2023-07-13T04:08:28;2.57;;;1.60;;
3985;SDS011;2007;48.750;9.278;2023-07-13T04:10:57;2.00;;;1.13;;
3985;SDS011;2007;48.750;9.278;2023-07-13T04:13:26;2.07;;;1.40;;
3985;SDS011;2007;48.750;9.278;2023-07-13T04:15:54;1.93;;;1.40;;
3985;SDS011;2007;48.750;9.278;2023-07-13T04:18:23;2.20;;;1.40;;
3985;SDS011;2007;48.750;9.278;2023-07-13T04:20:51;1.90;;;1.30;;
3985;SDS011;2007;48.750;9.278;2023-07-13T04:23:19;2.17;;;1.43;;
3985;SDS011;2007;48.750;9.278;2023-07-13T04:25:49;2.13;;;1.37;;
3985;SDS011;2007;48.750;9.278;2023-07-13T04:28:20;2.10;;;1.23;;
3985;SDS011;2007;48.750;9.278;2023-07-13T04:30:48;4.73;;;1.23;;
3985;SDS011;2007;48.750;9.278;2023-07-13T04:33:17;1.70;;;1.10;;
3985;SDS011;2007;48.750;9.278;2023-07-13T04:35:48;2.43;;;1.23;;
3985;SDS011;2007;48.750;9.278;2023-07-13T04:38:23;2.00;;;1.20;;
3985;SDS011;2007;48.750;9.278;2023-07-13T04:40:55;2.20;;;1.40;;
3985;SDS011;2007;48.750;9.278;2023-07-13T04:43:24;2.47;;;1.60;;
3985;SDS011;2007;48.750;9.278;2023-07-13T04:45:53;2.40;;;1.50;;
3985;SDS011;2007;48.750;9.278;2023-07-13T04:48:21;2.00;;;1.63;;
3985;SDS011;2007;48.750;9.278;2023-07-13T04:50:54;1.83;;;1.10;;
3985;SDS011;2007;48.750;9.278;2023-07-13T04:53:23;1.87;;;1.37;;
3985;SDS011;2007;48.750;9.278;2023-07-13T04:55:51;1.83;;;1.00;;
3985;SDS011;2007;48.750;9.278;2023-07-13T04:58:21;2.07;;;1.20;;
3985;SDS011;2007;48.750;9.278;2023-07-13T05:00:49;1.90;;;1.40;;
3985;SDS011;2007;48.750;9.278;2023-07-13T05:03:17;1.90;;;1.10;;
3985;SDS011;2007;48.750;9.278;2023-07-13T05:05:54;2.57;;;1.30;;
3985;SDS011;2007;48.750;9.278;2023-07-13T05:08:22;3.20;;;1.50;;
3985;SDS011;2007;48.750;9.278;2023-07-13T05:10:51;2.00;;;1.20;;
3985;SDS011;2007;48.750;9.278;2023-07-13T05:13:20;1.90;;;1.00;;
3985;SDS011;2007;48.750;9.278;2023-07-13T05:15:55;2.00;;;1.40;;
3985;SDS011;2007;48.750;9.278;2023-07-13T05:18:24;1.60;;;1.03;;
3985;SDS011;2007;48.750;9.278;2023-07-13T05:20:58;2.33;;;1.30;;
3985;SDS011;2007;48.750;9.278;2023-07-13T05:23:28;1.70;;;1.00;;
3985;SDS011;2007;48.750;9.278;2023-07-13T05:25:56;2.17;;;1.57;;
3985;SDS011;2007;48.750;9.278;2023-07-13T05:28:26;2.10;;;1.43;;
3985;SDS011;2007;48.750;9.278;2023-07-13T05:30:55;1.80;;;1.10;;
3985;SDS011;2007;48.750;9.278;2023-07-13T05:33:24;1.67;;;1.00;;
3985;SDS011;2007;48.750;9.278;2023-07-13T05:35:53;3.20;;;2.17;;
3985;SDS011;2007;48.750;9.278;2023-07-13T05:38:21;1.90;;;1.40;;
3985;SDS011;2007;48.750;9.278;2023-07-13T05:40:50;1.80;;;1.00;;
3985;SDS011;2007;48.750;9.278;2023-07-13T05:43:18;1.70;;;1.20;;
3985;SDS011;2007;48.750;9.278;2023-07-13T05:45:47;2.27;;;1.30;;
3985;SDS011;2007;48.750;9.278;2023-07-13T05:48:16;2.13;;;1.47;;
3985;SDS011;2007;48.750;9.278;2023-07-13T05:50:43;2.63;;;1.30;;
3985;SDS011;2007;48.750;9.278;2023-07-13T05:53:12;2.00;;;1.20;;
3985;SDS011;2007;48.750;9.278;2023-07-13T05:55:40;1.60;;;0.93;;
3985;SDS011;2007;48.750;9.278;2023-07-13T05:58:09;1.70;;;0.97;;
3985;SDS011;2007;48.750;9.278;2023-07-13T06:00:38;2.47;;;1.27;;
3985;SDS011;2007;48.750;9.278;2023-07-13T06:03:07;2.07;;;1.07;;
3985;SDS011;2007;48.750;9.278;2023-07-13T06:05:35;3.50;;;1.37;;
3985;SDS011;2007;48.750;9.278;2023-07-13T06:08:05;2.00;;;1.53;;
3985;SDS011;2007;48.750;9.278;2023-07-13T06:10:34;2.30;;;1.23;;
3985;SDS011;2007;48.750;9.278;2023-07-13T06:13:03;1.70;;;0.93;;
3985;SDS011;2007;48.750;9.278;2023-07-13T06:15:31;2.03;;;1.30;;
3985;SDS011;2007;48.750;9.278;2023-07-13T06:17:59;2.20;;;1.30;;
3985;SDS011;2007;48.750;9.278;2023-07-13T06:20:30;2.93;;;1.63;;
3985;SDS011;2007;48.750;9.278;2023-07-13T06:23:01;1.77;;;1.07;;
3985;SDS011;2007;48.750;9.278;2023-07-13T06:25:29;2.13;;;1.20;;
3985;SDS011;2007;48.750;9.278;2023-07-13T06:27:57;1.83;;;1.30;;
3985;SDS011;2007;48.750;9.278;2023-07-13T06:30:25;2.00;;;1.30;;
3985;SDS011;2007;48.750;9.278;2023-07-13T06:32:53;2.17;;;1.10;;
3985;SDS011;2007;48.750;9.278;2023-07-13T06:35:21;1.97;;;1.17;;
3985;SDS011;2007;48.750;9.278;2023-07-13T06:37:51;1.90;;;1.10;;
3985;SDS011;2007;48.750;9.278;2023-07-13T06:40:19;1.83;;;1.00;;
3985;SDS011;2007;48.750;9.278;2023-07-13T06:42:47;1.80;;;1.17;;
3985;SDS011;2007;48.750;9.278;2023-07-13T06:45:15;1.50;;;0.83;;
3985;SDS011;2007;48.750;9.278;2023-07-13T06:47:43;1.80;;;1.00;;
3985;SDS011;2007;48.750;9.278;2023-07-13T06:50:11;1.80;;;1.10;;
3985;SDS011;2007;48.750;9.278;2023-07-13T06:52:39;1.67;;;1.10;;
3985;SDS011;2007;48.750;9.278;2023-07-13T06:55:08;1.80;;;0.97;;
3985;SDS011;2007;48.750;9.278;2023-07-13T06:57:36;1.57;;;0.90;;
3985;SDS011;2007;48.750;9.278;2023-07-13T07:00:05;1.77;;;1.17;;
3985;SDS011;2007;48.750;9.278;2023-07-13T07:02:36;1.57;;;0.97;;
3985;SDS011;2007;48.750;9.278;2023-07-13T07:05:04;1.93;;;1.10;;
3985;SDS011;2007;48.750;9.278;2023-07-13T07:07:32;2.00;;;1.10;;
3985;SDS011;2007;48.750;9.278;2023-07-13T07:10:01;2.47;;;1.43;;
3985;SDS011;2007;48.750;9.278;2023-07-13T07:12:30;2.17;;;1.33;;
3985;SDS011;2007;48.750;9.278;2023-07-13T07:14:58;1.63;;;1.00;;
3985;SDS011;2007;48.750;9.278;2023-07-13T07:17:26;1.90;;;1.07;;
3985;SDS011;2007;48.750;9.278;2023-07-13T07:19:54;1.90;;;1.07;;
3985;SDS011;2007;48.750;9.278;2023-07-13T07:22:23;2.57;;;1.10;;
3985;SDS011;2007;48.750;9.278;2023-07-13T07:24:53;2.03;;;1.30;;
3985;SDS011;2007;48.750;9.278;2023-07-13T07:27:21;2.30;;;1.30;;
3985;SDS011;2007;48.750;9.278;2023-07-13T07:29:53;1.57;;;0.90;;
3985;SDS011;2007;48.750;9.278;2023-07-13T07:32:28;1.93;;;1.03;;
3985;SDS011;2007;48.750;9.278;2023-07-13T07:35:17;2.13;;;1.20;;
3985;SDS011;2007;48.750;9.278;2023-07-13T07:37:45;1.70;;;1.00;;
3985;SDS011;2007;48.750;9.278;2023-07-13T07:40:16;1.50;;;0.80;;
3985;SDS011;2007;48.750;9.278;2023-07-13T07:42:46;1.80;;;1.00;;
3985;SDS011;2007;48.750;9.278;2023-07-13T07:45:16;1.83;;;1.27;;
3985;SDS011;2007;48.750;9.278;2023-07-13T07:47:44;1.90;;;1.07;;
3985;SDS011;2007;48.750;9.278;2023-07-13T07:50:12;1.90;;;1.10;;
3985;SDS011;2007;48.750;9.278;2023-07-13T07:52:40;1.87;;;1.13;;
3985;SDS011;2007;48.750;9.278;2023-07-13T07:55:10;2.00;;;1.00;;
3985;SDS011;2007;48.750;9.278;2023-07-13T07:57:41;1.83;;;1.20;;
3985;SDS011;2007;48.750;9.278;2023-07-13T08:00:12;1.90;;;0.80;;
3985;SDS011;2007;48.750;9.278;2023-07-13T08:02:45;3.27;;;1.20;;
3985;SDS011;2007;48.750;9.278;2023-07-13T08:05:16;1.60;;;1.10;;
3985;SDS011;2007;48.750;9.278;2023-07-13T08:08:04;1.90;;;1.00;;
3985;SDS011;2007;48.750;9.278;2023-07-13T08:10:34;1.63;;;1.10;;
3985;SDS011;2007;48.750;9.278;2023-07-13T08:13:03;1.73;;;1.07;;
3985;SDS011;2007;48.750;9.278;2023-07-13T08:15:34;1.60;;;1.10;;
3985;SDS011;2007;48.750;9.278;2023-07-13T08:18:03;1.70;;;1.00;;
3985;SDS011;2007;48.750;9.278;2023-07-13T08:20:31;1.60;;;1.00;;
3985;SDS011;2007;48.750;9.278;2023-07-13T08:22:59;2.30;;;1.57;;
3985;SDS011;2007;48.750;9.278;2023-07-13T08:25:27;1.77;;;1.03;;
3985;SDS011;2007;48.750;9.278;2023-07-13T08:27:55;1.83;;;1.07;;
3985;SDS011;2007;48.750;9.278;2023-07-13T08:30:23;1.90;;;1.00;;
3985;SDS011;2007;48.750;9.278;2023-07-13T08:32:51;1.97;;;1.07;;
3985;SDS011;2007;48.750;9.278;2023-07-13T08:35:22;3.40;;;1.30;;
3985;SDS011;2007;48.750;9.278;2023-07-13T08:37:51;1.90;;;1.00;;
3985;SDS011;2007;48.750;9.278;2023-07-13T08:40:19;1.80;;;1.23;;
3985;SDS011;2007;48.750;9.278;2023-07-13T08:42:53;1.83;;;1.03;;
3985;SDS011;2007;48.750;9.278;2023-07-13T08:45:23;2.50;;;1.40;;
3985;SDS011;2007;48.750;9.278;2023-07-13T08:47:56;2.57;;;0.80;;
3985;SDS011;2007;48.750;9.278;2023-07-13T08:50:33;1.60;;;0.90;;
3985;SDS011;2007;48.750;9.278;2023-07-13T08:53:25;1.50;;;0.83;;
3985;SDS011;2007;48.750;9.278;2023-07-13T08:55:59;1.80;;;1.10;;
3985;SDS011;2007;48.750;9.278;2023-07-13T08:58:28;1.80;;;1.10;;
3985;SDS011;2007;48.750;9.278;2023-07-13T09:00:58;2.13;;;1.50;;
3985;SDS011;2007;48.750;9.278;2023-07-13T09:03:36;1.60;;;0.90;;
3985;SDS011;2007;48.750;9.278;2023-07-13T09:06:09;2.43;;;1.43;;
3985;SDS011;2007;48.750;9.278;2023-07-13T09:08:43;1.70;;;0.93;;
3985;SDS011;2007;48.750;9.278;2023-07-13T09:11:23;3.10;;;1.20;;
3985;SDS011;2007;48.750;9.278;2023-07-13T09:14:03;1.63;;;1.00;;
3985;SDS011;2007;48.750;9.278;2023-07-13T09:16:50;1.90;;;1.00;;
3985;SDS011;2007;48.750;9.278;2023-07-13T09:19:20;1.93;;;0.80;;
3985;SDS011;2007;48.750;9.278;2023-07-13T09:21:52;1.67;;;0.97;;
3985;SDS011;2007;48.750;9.278;2023-07-13T09:24:28;2.00;;;1.20;;
3985;SDS011;2007;48.750;9.278;2023-07-13T09:27:03;2.23;;;1.00;;
3985;SDS011;2007;48.750;9.278;2023-07-13T09:29:41;1.70;;;1.10;;
3985;SDS011;2007;48.750;9.278;2023-07-13T09:32:12;2.30;;;0.80;;
3985;SDS011;2007;48.750;9.278;2023-07-13T09:34:49;1.67;;;1.13;;
3985;SDS011;2007;48.750;9.278;2023-07-13T09:37:21;1.63;;;1.00;;
3985;SDS011;2007;48.750;9.278;2023-07-13T09:39:51;1.70;;;0.87;;
3985;SDS011;2007;48.750;9.278;2023-07-13T09:42:20;1.90;;;1.03;;
3985;SDS011;2007;48.750;9.278;2023-07-13T09:44:51;1.60;;;0.90;;
3985;SDS011;2007;48.750;9.278;2023-07-13T09:47:21;2.10;;;1.00;;
3985;SDS011;2007;48.750;9.278;2023-07-13T09:49:56;1.60;;;0.90;;
3985;SDS011;2007;48.750;9.278;2023-07-13T09:52:39;1.50;;;0.80;;
3985;SDS011;2007;48.750;9.278;2023-07-13T09:55:23;1.90;;;1.20;;
3985;SDS011;2007;48.750;9.278;2023-07-13T09:57:52;3.77;;;1.20;;
3985;SDS011;2007;48.750;9.278;2023-07-13T10:00:21;2.23;;;1.10;;
3985;SDS011;2007;48.750;9.278;2023-07-13T10:02:58;2.40;;;1.03;;
3985;SDS011;2007;48.750;9.278;2023-07-13T10:05:28;1.97;;;1.10;;
3985;SDS011;2007;48.750;9.278;2023-07-13T10:08:09;1.70;;;1.00;;
3985;SDS011;2007;48.750;9.278;2023-07-13T10:10:44;1.90;;;0.80;;
3985;SDS011;2007;48.750;9.278;2023-07-13T10:13:24;2.00;;;1.30;;
3985;SDS011;2007;48.750;9.278;2023-07-13T10:15:54;2.20;;;1.13;;
3985;SDS011;2007;48.750;9.278;2023-07-13T10:18:24;2.20;;;1.17;;
3985;SDS011;2007;48.750;9.278;2023-07-13T10:20:54;1.97;;;1.00;;
3985;SDS011;2007;48.750;9.278;2023-07-13T10:23:59;2.30;;;1.03;;
3985;SDS011;2007;48.750;9.278;2023-07-13T10:26:33;2.00;;;1.00;;
3985;SDS011;2007;48.750;9.278;2023-07-13T10:29:03;1.60;;;0.80;;
3985;SDS011;2007;48.750;9.278;2023-07-13T10:31:35;1.53;;;0.80;;
3985;SDS011;2007;48.750;9.278;2023-07-13T10:34:07;1.90;;;1.10;;
3985;SDS011;2007;48.750;9.278;2023-07-13T10:36:38;1.70;;;0.93;;
3985;SDS011;2007;48.750;9.278;2023-07-13T10:39:16;1.67;;;1.17;;
3985;SDS011;2007;48.750;9.278;2023-07-13T10:41:48;2.00;;;1.47;;
3985;SDS011;2007;48.750;9.278;2023-07-13T10:44:21;1.70;;;1.13;;
3985;SDS011;2007;48.750;9.278;2023-07-13T10:46:53;1.83;;;0.80;;
3985;SDS011;2007;48.750;9.278;2023-07-13T10:49:23;1.83;;;0.93;;
3985;SDS011;2007;48.750;9.278;2023-07-13T10:51:53;1.80;;;1.03;;
3985;SDS011;2007;48.750;9.278;2023-07-13T10:54:26;1.53;;;0.90;;
3985;SDS011;2007;48.750;9.278;2023-07-13T10:57:08;1.90;;;1.00;;
3985;SDS011;2007;48.750;9.278;2023-07-13T10:59:45;1.40;;;0.80;;
3985;SDS011;2007;48.750;9.278;2023-07-13T11:02:20;2.10;;;1.00;;
3985;SDS011;2007;48.750;9.278;2023-07-13T11:04:54;1.57;;;0.90;;
3985;SDS011;2007;48.750;9.278;2023-07-13T11:07:25;2.00;;;1.20;;
3985;SDS011;2007;48.750;9.278;2023-07-13T11:09:56;1.63;;;0.87;;
3985;SDS011;2007;48.750;9.278;2023-07-13T11:12:27;1.70;;;1.10;;
3985;SDS011;2007;48.750;9.278;2023-07-13T11:15:15;1.80;;;0.93;;
3985;SDS011;2007;48.750;9.278;2023-07-13T11:17:56;1.60;;;1.00;;
3985;SDS011;2007;48.750;9.278;2023-07-13T11:20:33;2.50;;;0.90;;
3985;SDS011;2007;48.750;9.278;2023-07-13T11:25:59;1.73;;;0.90;;
3985;SDS011;2007;48.750;9.278;2023-07-13T11:28:30;1.70;;;1.00;;
3985;SDS011;2007;48.750;9.278;2023-07-13T11:31:00;1.97;;;1.00;;
3985;SDS011;2007;48.750;9.278;2023-07-13T11:33:49;1.70;;;0.90;;
3985;SDS011;2007;48.750;9.278;2023-07-13T11:36:20;2.90;;;1.30;;
3985;SDS011;2007;48.750;9.278;2023-07-13T11:38:55;1.50;;;0.70;;
3985;SDS011;2007;48.750;9.278;2023-07-13T11:41:30;1.43;;;0.83;;
3985;SDS011;2007;48.750;9.278;2023-07-13T11:44:10;1.60;;;1.00;;
3985;SDS011;2007;48.750;9.278;2023-07-13T11:46:44;1.70;;;0.93;;
3985;SDS011;2007;48.750;9.278;2023-07-13T11:49:17;1.70;;;0.87;;
3985;SDS011;2007;48.750;9.278;2023-07-13T11:51:49;2.60;;;1.10;;
3985;SDS011;2007;48.750;9.278;2023-07-13T11:54:24;1.73;;;1.03;;
3985;SDS011;2007;48.750;9.278;2023-07-13T11:56:56;2.10;;;1.30;;
3985;SDS011;2007;48.750;9.278;2023-07-13T11:59:28;1.80;;;0.90;;
3985;SDS011;2007;48.750;9.278;2023-07-13T12:01:58;1.87;;;1.13;;
3985;SDS011;2007;48.750;9.278;2023-07-13T12:04:27;1.50;;;0.80;;
3985;SDS011;2007;48.750;9.278;2023-07-13T12:07:03;1.90;;;1.00;;
3985;SDS011;2007;48.750;9.278;2023-07-13T12:09:35;1.60;;;0.80;;
3985;SDS011;2007;48.750;9.278;2023-07-13T12:12:09;1.77;;;0.90;;
3985;SDS011;2007;48.750;9.278;2023-07-13T12:14:39;1.70;;;0.77;;
3985;SDS011;2007;48.750;9.278;2023-07-13T12:17:09;1.77;;;0.80;;
3985;SDS011;2007;48.750;9.278;2023-07-13T12:19:42;1.67;;;1.00;;
3985;SDS011;2007;48.750;9.278;2023-07-13T12:22:11;1.70;;;1.00;;
3985;SDS011;2007;48.750;9.278;2023-07-13T12:24:41;1.50;;;0.90;;
3985;SDS011;2007;48.750;9.278;2023-07-13T12:27:16;1.77;;;0.90;;
3985;SDS011;2007;48.750;9.278;2023-07-13T12:29:49;1.77;;;1.00;;
3985;SDS011;2007;48.750;9.278;2023-07-13T12:32:19;1.60;;;0.80;;
3985;SDS011;2007;48.750;9.278;2023-07-13T12:34:52;1.70;;;1.10;;
3985;SDS011;2007;48.750;9.278;2023-07-13T12:37:22;2.23;;;0.83;;
3985;SDS011;2007;48.750;9.278;2023-07-13T12:39:51;2.03;;;1.00;;
3985;SDS011;2007;48.750;9.278;2023-07-13T12:42:21;1.50;;;0.70;;
3985;SDS011;2007;48.750;9.278;2023-07-13T12:44:54;1.70;;;0.97;;
3985;SDS011;2007;48.750;9.278;2023-07-13T12:47:24;1.80;;;1.03;;
3985;SDS011;2007;48.750;9.278;2023-07-13T12:49:53;2.83;;;0.97;;
3985;SDS011;2007;48.750;9.278;2023-07-13T12:52:23;1.60;;;1.10;;
3985;SDS011;2007;48.750;9.278;2023-07-13T12:54:57;1.90;;;1.10;;
3985;SDS011;2007;48.750;9.278;2023-07-13T12:57:34;2.33;;;0.90;;
3985;SDS011;2007;48.750;9.278;2023-07-13T13:00:13;2.20;;;0.97;;
3985;SDS011;2007;48.750;9.278;2023-07-13T13:02:52;1.80;;;1.10;;
3985;SDS011;2007;48.750;9.278;2023-07-13T13:05:33;1.60;;;0.90;;
3985;SDS011;2007;48.750;9.278;2023-07-13T13:08:03;2.00;;;1.03;;
3985;SDS011;2007;48.750;9.278;2023-07-13T13:10:31;2.20;;;0.93;;
3985;SDS011;2007;48.750;9.278;2023-07-13T13:13:01;2.60;;;1.00;;
3985;SDS011;2007;48.750;9.278;2023-07-13T13:15:29;1.63;;;0.90;;
3985;SDS011;2007;48.750;9.278;2023-07-13T13:17:57;3.20;;;1.07;;
3985;SDS011;2007;48.750;9.278;2023-07-13T13:20:25;2.00;;;1.10;;
3985;SDS011;2007;48.750;9.278;2023-07-13T13:22:53;1.70;;;1.00;;
3985;SDS011;2007;48.750;9.278;2023-07-13T13:25:21;1.60;;;0.80;;
3985;SDS011;2007;48.750;9.278;2023-07-13T13:27:49;1.63;;;0.90;;
3985;SDS011;2007;48.750;9.278;2023-07-13T13:30:19;1.77;;;1.00;;
3985;SDS011;2007;48.750;9.278;2023-07-13T13:32:48;1.60;;;0.80;;
3985;SDS011;2007;48.750;9.278;2023-07-13T13:35:16;1.57;;;0.83;;
3985;SDS011;2007;48.750;9.278;2023-07-13T13:37:46;2.10;;;1.03;;
3985;SDS011;2007;48.750;9.278;2023-07-13T13:40:17;1.77;;;0.80;;
3985;SDS011;2007;48.750;9.278;2023-07-13T13:42:46;1.90;;;0.90;;
3985;SDS011;2007;48.750;9.278;2023-07-13T13:45:14;1.70;;;1.00;;
3985;SDS011;2007;48.750;9.278;2023-07-13T13:47:45;1.90;;;0.93;;
3985;SDS011;2007;48.750;9.278;2023-07-13T13:50:15;1.50;;;1.00;;
3985;SDS011;2007;48.750;9.278;2023-07-13T13:52:45;2.03;;;0.90;;
3985;SDS011;2007;48.750;9.278;2023-07-13T13:55:13;1.77;;;0.90;;
3985;SDS011;2007;48.750;9.278;2023-07-13T13:57:41;4.70;;;2.00;;
3985;SDS011;2007;48.750;9.278;2023-07-13T14:00:10;2.87;;;0.83;;
3985;SDS011;2007;48.750;9.278;2023-07-13T14:02:41;2.30;;;1.20;;
3985;SDS011;2007;48.750;9.278;2023-07-13T14:05:15;1.53;;;0.90;;
3985;SDS011;2007;48.750;9.278;2023-07-13T14:07:47;3.00;;;1.07;;
3985;SDS011;2007;48.750;9.278;2023-07-13T14:10:16;1.60;;;0.80;;
3985;SDS011;2007;48.750;9.278;2023-07-13T14:12:47;2.03;;;1.00;;
3985;SDS011;2007;48.750;9.278;2023-07-13T14:15:20;2.03;;;1.17;;
3985;SDS011;2007;48.750;9.278;2023-07-13T14:17:50;1.90;;;0.93;;
3985;SDS011;2007;48.750;9.278;2023-07-13T14:20:20;1.67;;;1.00;;
3985;SDS011;2007;48.750;9.278;2023-07-13T14:22:50;1.73;;;0.90;;
3985;SDS011;2007;48.750;9.278;2023-07-13T14:25:19;3.70;;;0.83;;
3985;SDS011;2007;48.750;9.278;2023-07-13T14:27:49;2.57;;;1.40;;
3985;SDS011;2007;48.750;9.278;2023-07-13T14:30:20;1.60;;;0.87;;
3985;SDS011;2007;48.750;9.278;2023-07-13T14:32:49;1.60;;;0.90;;
3985;SDS011;2007;48.750;9.278;2023-07-13T14:35:17;2.67;;;0.90;;
3985;SDS011;2007;48.750;9.278;2023-07-13T14:37:49;2.17;;;0.93;;
3985;SDS011;2007;48.750;9.278;2023-07-13T14:40:19;1.40;;;0.70;;
3985;SDS011;2007;48.750;9.278;2023-07-13T14:42:52;1.50;;;0.80;;
3985;SDS011;2007;48.750;9.278;2023-07-13T14:45:20;1.90;;;1.00;;
3985;SDS011;2007;48.750;9.278;2023-07-13T14:47:48;1.97;;;1.20;;
3985;SDS011;2007;48.750;9.278;2023-07-13T14:50:17;1.50;;;0.90;;
3985;SDS011;2007;48.750;9.278;2023-07-13T14:52:48;1.80;;;1.17;;
3985;SDS011;2007;48.750;9.278;2023-07-13T14:55:16;2.37;;;0.87;;
3985;SDS011;2007;48.750;9.278;2023-07-13T14:57:46;1.70;;;1.10;;
3985;SDS011;2007;48.750;9.278;2023-07-13T15:00:14;2.80;;;1.37;;
3985;SDS011;2007;48.750;9.278;2023-07-13T15:02:43;1.63;;;1.00;;
3985;SDS011;2007;48.750;9.278;2023-07-13T15:05:15;1.53;;;0.80;;
3985;SDS011;2007;48.750;9.278;2023-07-13T15:07:46;1.60;;;1.00;;
3985;SDS011;2007;48.750;9.278;2023-07-13T15:10:15;1.40;;;0.80;;
3985;SDS011;2007;48.750;9.278;2023-07-13T15:12:44;1.70;;;1.07;;
3985;SDS011;2007;48.750;9.278;2023-07-13T15:15:13;1.70;;;1.00;;
3985;SDS011;2007;48.750;9.278;2023-07-13T15:17:41;2.37;;;1.07;;
3985;SDS011;2007;48.750;9.278;2023-07-13T15:20:17;1.80;;;0.90;;
3985;SDS011;2007;48.750;9.278;2023-07-13T15:22:50;2.07;;;1.00;;
3985;SDS011;2007;48.750;9.278;2023-07-13T15:25:19;1.60;;;0.90;;
3985;SDS011;2007;48.750;9.278;2023-07-13T15:27:48;1.77;;;0.83;;
3985;SDS011;2007;48.750;9.278;2023-07-13T15:30:16;2.17;;;1.07;;
3985;SDS011;2007;48.750;9.278;2023-07-13T15:32:45;1.83;;;0.90;;
3985;SDS011;2007;48.750;9.278;2023-07-13T15:35:14;1.63;;;0.83;;
3985;SDS011;2007;48.750;9.278;2023-07-13T15:37:43;1.50;;;0.80;;
3985;SDS011;2007;48.750;9.278;2023-07-13T15:40:13;1.63;;;0.90;;